sensor_id;sensor_type;location;lat;lon;timestamp;temperature;humidity
24614;DHT22;12760;46.296;25.290;2023-01-19T00:00:58;8.60;99.90
24614;DHT22;12760;46.296;25.290;2023-01-19T00:03:24;8.60;99.90
24614;DHT22;12760;46.296;25.290;2023-01-19T00:05:49;8.60;99.90
24614;DHT22;12760;46.296;25.290;2023-01-19T00:08:15;8.60;99.90
24614;DHT22;12760;46.296;25.290;2023-01-19T00:10:48;8.60;99.90
24614;DHT22;12760;46.296;25.290;2023-01-19T00:13:15;8.60;99.90
24614;DHT22;12760;46.296;25.290;2023-01-19T00:15:41;8.60;99.90
24614;DHT22;12760;46.296;25.290;2023-01-19T00:18:07;8.60;99.90
24614;DHT22;12760;46.296;25.290;2023-01-19T00:20:33;8.60;99.90
24614;DHT22;12760;46.296;25.290;2023-01-19T00:23:00;8.60;99.90
24614;DHT22;12760;46.296;25.290;2023-01-19T00:25:26;8.70;99.90
24614;DHT22;12760;46.296;25.290;2023-01-19T00:27:51;8.70;99.90
24614;DHT22;12760;46.296;25.290;2023-01-19T00:30:17;8.70;99.90
24614;DHT22;12760;46.296;25.290;2023-01-19T00:32:43;8.70;99.90
24614;DHT22;12760;46.296;25.290;2023-01-19T00:35:09;8.70;99.90
24614;DHT22;12760;46.296;25.290;2023-01-19T00:37:35;8.70;99.90
24614;DHT22;12760;46.296;25.290;2023-01-19T00:40:00;8.60;99.90
24614;DHT22;12760;46.296;25.290;2023-01-19T00:42:26;8.60;99.90
24614;DHT22;12760;46.296;25.290;2023-01-19T00:47:39;8.50;99.90
24614;DHT22;12760;46.296;25.290;2023-01-19T00:50:09;8.50;99.90
24614;DHT22;12760;46.296;25.290;2023-01-19T00:52:41;8.50;99.90
24614;DHT22;12760;46.296;25.290;2023-01-19T00:55:08;8.50;99.90
24614;DHT22;12760;46.296;25.290;2023-01-19T00:57:35;8.50;99.90
24614;DHT22;12760;46.296;25.290;2023-01-19T01:00:01;8.50;99.90
24614;DHT22;12760;46.296;25.290;2023-01-19T01:02:27;8.50;99.90
24614;DHT22;12760;46.296;25.290;2023-01-19T01:04:52;8.40;99.90
24614;DHT22;12760;46.296;25.290;2023-01-19T01:07:23;8.40;99.90
24614;DHT22;12760;46.296;25.290;2023-01-19T01:09:49;8.40;99.90
24614;DHT22;12760;46.296;25.290;2023-01-19T01:12:15;8.50;99.90
24614;DHT22;12760;46.296;25.290;2023-01-19T01:14:41;8.50;99.90
24614;DHT22;12760;46.296;25.290;2023-01-19T01:17:07;8.60;99.90
24614;DHT22;12760;46.296;25.290;2023-01-19T01:19:36;8.70;99.90
24614;DHT22;12760;46.296;25.290;2023-01-19T01:22:03;8.70;99.90
24614;DHT22;12760;46.296;25.290;2023-01-19T01:24:29;8.80;99.90
24614;DHT22;12760;46.296;25.290;2023-01-19T01:26:55;8.80;99.90
24614;DHT22;12760;46.296;25.290;2023-01-19T01:29:20;8.90;99.90
24614;DHT22;12760;46.296;25.290;2023-01-19T01:31:46;8.80;99.90
24614;DHT22;12760;46.296;25.290;2023-01-19T01:34:12;8.80;99.90
24614;DHT22;12760;46.296;25.290;2023-01-19T01:36:37;8.80;99.90
24614;DHT22;12760;46.296;25.290;2023-01-19T01:39:04;8.80;99.90
24614;DHT22;12760;46.296;25.290;2023-01-19T01:41:30;8.80;99.90
24614;DHT22;12760;46.296;25.290;2023-01-19T01:43:57;8.80;99.90
24614;DHT22;12760;46.296;25.290;2023-01-19T01:46:23;8.70;99.90
24614;DHT22;12760;46.296;25.290;2023-01-19T01:49:04;8.70;99.90
24614;DHT22;12760;46.296;25.290;2023-01-19T01:51:33;8.70;99.90
24614;DHT22;12760;46.296;25.290;2023-01-19T01:56:48;8.80;99.90
24614;DHT22;12760;46.296;25.290;2023-01-19T01:59:21;8.70;99.90
24614;DHT22;12760;46.296;25.290;2023-01-19T02:01:56;8.80;99.90
24614;DHT22;12760;46.296;25.290;2023-01-19T02:05:03;8.80;99.90
24614;DHT22;12760;46.296;25.290;2023-01-19T02:08:03;8.80;99.90
24614;DHT22;12760;46.296;25.290;2023-01-19T02:10:50;8.70;99.90
24614;DHT22;12760;46.296;25.290;2023-01-19T02:13:36;8.70;99.90
24614;DHT22;12760;46.296;25.290;2023-01-19T02:16:06;8.80;99.90
24614;DHT22;12760;46.296;25.290;2023-01-19T02:18:33;8.90;99.90
24614;DHT22;12760;46.296;25.290;2023-01-19T02:23:45;8.80;99.90
24614;DHT22;12760;46.296;25.290;2023-01-19T02:26:14;8.80;99.90
24614;DHT22;12760;46.296;25.290;2023-01-19T02:28:45;8.70;99.90
24614;DHT22;12760;46.296;25.290;2023-01-19T02:31:12;8.70;99.90
24614;DHT22;12760;46.296;25.290;2023-01-19T02:33:40;8.60;99.90
24614;DHT22;12760;46.296;25.290;2023-01-19T02:36:06;8.50;99.90
24614;DHT22;12760;46.296;25.290;2023-01-19T02:38:34;8.40;99.90
24614;DHT22;12760;46.296;25.290;2023-01-19T02:41:02;8.40;99.90
24614;DHT22;12760;46.296;25.290;2023-01-19T02:43:29;8.40;99.90
24614;DHT22;12760;46.296;25.290;2023-01-19T02:45:56;8.40;99.90
24614;DHT22;12760;46.296;25.290;2023-01-19T02:48:22;8.40;99.90
24614;DHT22;12760;46.296;25.290;2023-01-19T02:50:58;8.40;99.90
24614;DHT22;12760;46.296;25.290;2023-01-19T03:12:46;8.70;99.90
24614;DHT22;12760;46.296;25.290;2023-01-19T03:15:35;8.80;99.90
24614;DHT22;12760;46.296;25.290;2023-01-19T03:18:05;8.90;99.90
24614;DHT22;12760;46.296;25.290;2023-01-19T03:20:32;8.90;99.90
24614;DHT22;12760;46.296;25.290;2023-01-19T03:23:00;9.00;99.90
24614;DHT22;12760;46.296;25.290;2023-01-19T03:25:32;9.10;99.90
24614;DHT22;12760;46.296;25.290;2023-01-19T03:28:00;9.00;99.90
24614;DHT22;12760;46.296;25.290;2023-01-19T03:30:29;9.00;99.90
24614;DHT22;12760;46.296;25.290;2023-01-19T03:33:42;9.00;99.90
24614;DHT22;12760;46.296;25.290;2023-01-19T03:36:36;9.10;99.90
24614;DHT22;12760;46.296;25.290;2023-01-19T03:39:04;9.10;99.90
24614;DHT22;12760;46.296;25.290;2023-01-19T03:41:32;9.10;99.90
24614;DHT22;12760;46.296;25.290;2023-01-19T03:43:59;9.00;99.90
24614;DHT22;12760;46.296;25.290;2023-01-19T03:46:25;9.00;99.90
24614;DHT22;12760;46.296;25.290;2023-01-19T03:48:52;9.10;99.90
24614;DHT22;12760;46.296;25.290;2023-01-19T03:51:19;9.10;99.90
24614;DHT22;12760;46.296;25.290;2023-01-19T03:53:46;9.20;99.90
24614;DHT22;12760;46.296;25.290;2023-01-19T03:56:22;9.10;99.90
24614;DHT22;12760;46.296;25.290;2023-01-19T03:58:48;9.10;99.90
24614;DHT22;12760;46.296;25.290;2023-01-19T04:01:15;9.10;99.90
24614;DHT22;12760;46.296;25.290;2023-01-19T04:03:41;9.20;99.90
24614;DHT22;12760;46.296;25.290;2023-01-19T04:06:08;9.20;99.90
24614;DHT22;12760;46.296;25.290;2023-01-19T04:08:35;9.20;99.90
24614;DHT22;12760;46.296;25.290;2023-01-19T04:11:01;9.20;99.90
24614;DHT22;12760;46.296;25.290;2023-01-19T04:13:26;9.30;99.90
24614;DHT22;12760;46.296;25.290;2023-01-19T04:16:01;9.30;99.90
24614;DHT22;12760;46.296;25.290;2023-01-19T04:18:28;9.40;99.90
24614;DHT22;12760;46.296;25.290;2023-01-19T04:20:54;9.50;99.90
24614;DHT22;12760;46.296;25.290;2023-01-19T04:23:20;9.70;99.90
24614;DHT22;12760;46.296;25.290;2023-01-19T04:25:46;9.70;99.90
24614;DHT22;12760;46.296;25.290;2023-01-19T04:28:12;9.80;99.90
24614;DHT22;12760;46.296;25.290;2023-01-19T04:30:37;9.80;99.90
24614;DHT22;12760;46.296;25.290;2023-01-19T04:33:03;9.70;99.90
24614;DHT22;12760;46.296;25.290;2023-01-19T04:35:29;9.70;99.90
24614;DHT22;12760;46.296;25.290;2023-01-19T04:37:55;9.70;99.90
24614;DHT22;12760;46.296;25.290;2023-01-19T04:40:20;9.60;99.90
24614;DHT22;12760;46.296;25.290;2023-01-19T04:42:46;9.70;99.90
24614;DHT22;12760;46.296;25.290;2023-01-19T04:45:12;9.80;99.90
24614;DHT22;12760;46.296;25.290;2023-01-19T04:47:38;9.80;99.90
24614;DHT22;12760;46.296;25.290;2023-01-19T04:50:04;9.90;99.90
24614;DHT22;12760;46.296;25.290;2023-01-19T04:52:32;10.00;99.90
24614;DHT22;12760;46.296;25.290;2023-01-19T04:55:02;10.00;99.90
24614;DHT22;12760;46.296;25.290;2023-01-19T04:57:28;9.90;99.90
24614;DHT22;12760;46.296;25.290;2023-01-19T04:59:58;9.80;99.90
24614;DHT22;12760;46.296;25.290;2023-01-19T05:02:24;10.10;99.90
24614;DHT22;12760;46.296;25.290;2023-01-19T05:04:50;10.20;99.90
24614;DHT22;12760;46.296;25.290;2023-01-19T05:07:16;10.20;99.90
24614;DHT22;12760;46.296;25.290;2023-01-19T05:09:42;10.40;99.90
24614;DHT22;12760;46.296;25.290;2023-01-19T05:12:08;10.40;99.90
24614;DHT22;12760;46.296;25.290;2023-01-19T05:14:33;10.40;99.90
24614;DHT22;12760;46.296;25.290;2023-01-19T05:16:59;10.40;99.90
24614;DHT22;12760;46.296;25.290;2023-01-19T05:19:27;10.60;99.90
24614;DHT22;12760;46.296;25.290;2023-01-19T05:21:53;10.60;99.90
24614;DHT22;12760;46.296;25.290;2023-01-19T05:24:19;10.50;99.90
24614;DHT22;12760;46.296;25.290;2023-01-19T05:26:44;10.30;99.90
24614;DHT22;12760;46.296;25.290;2023-01-19T05:29:10;10.20;99.90
24614;DHT22;12760;46.296;25.290;2023-01-19T05:31:36;10.10;99.90
24614;DHT22;12760;46.296;25.290;2023-01-19T05:34:03;10.00;99.90
24614;DHT22;12760;46.296;25.290;2023-01-19T05:36:29;10.00;99.90
24614;DHT22;12760;46.296;25.290;2023-01-19T05:38:55;9.90;99.90
24614;DHT22;12760;46.296;25.290;2023-01-19T05:41:21;9.90;99.90
24614;DHT22;12760;46.296;25.290;2023-01-19T05:43:47;9.80;99.90
24614;DHT22;12760;46.296;25.290;2023-01-19T05:46:12;9.70;99.90
24614;DHT22;12760;46.296;25.290;2023-01-19T05:48:38;9.60;99.90
24614;DHT22;12760;46.296;25.290;2023-01-19T05:51:04;9.60;99.90
24614;DHT22;12760;46.296;25.290;2023-01-19T05:53:30;9.50;99.90
24614;DHT22;12760;46.296;25.290;2023-01-19T05:56:02;9.40;99.90
24614;DHT22;12760;46.296;25.290;2023-01-19T05:58:28;9.40;99.90
24614;DHT22;12760;46.296;25.290;2023-01-19T06:00:54;9.30;99.90
24614;DHT22;12760;46.296;25.290;2023-01-19T06:03:19;9.30;99.90
24614;DHT22;12760;46.296;25.290;2023-01-19T06:05:45;9.30;99.90
24614;DHT22;12760;46.296;25.290;2023-01-19T06:08:11;9.20;99.90
24614;DHT22;12760;46.296;25.290;2023-01-19T06:10:36;9.20;99.90
24614;DHT22;12760;46.296;25.290;2023-01-19T06:13:02;9.20;99.90
24614;DHT22;12760;46.296;25.290;2023-01-19T06:15:28;9.20;99.90
24614;DHT22;12760;46.296;25.290;2023-01-19T06:17:53;9.20;99.90
24614;DHT22;12760;46.296;25.290;2023-01-19T06:20:19;9.20;99.90
24614;DHT22;12760;46.296;25.290;2023-01-19T06:22:45;9.20;99.90
24614;DHT22;12760;46.296;25.290;2023-01-19T06:25:12;9.20;99.90
24614;DHT22;12760;46.296;25.290;2023-01-19T06:27:38;9.20;99.90
24614;DHT22;12760;46.296;25.290;2023-01-19T06:30:07;9.20;99.90
24614;DHT22;12760;46.296;25.290;2023-01-19T06:32:33;9.30;99.90
24614;DHT22;12760;46.296;25.290;2023-01-19T06:34:59;9.30;99.90
24614;DHT22;12760;46.296;25.290;2023-01-19T06:37:25;9.30;99.90
24614;DHT22;12760;46.296;25.290;2023-01-19T06:39:52;9.30;99.90
24614;DHT22;12760;46.296;25.290;2023-01-19T06:42:18;9.40;99.90
24614;DHT22;12760;46.296;25.290;2023-01-19T06:44:44;9.40;99.90
24614;DHT22;12760;46.296;25.290;2023-01-19T06:47:12;9.40;99.90
24614;DHT22;12760;46.296;25.290;2023-01-19T06:49:38;9.30;99.90
24614;DHT22;12760;46.296;25.290;2023-01-19T06:52:04;9.30;99.90
24614;DHT22;12760;46.296;25.290;2023-01-19T06:54:30;9.30;99.90
24614;DHT22;12760;46.296;25.290;2023-01-19T06:56:55;9.30;99.90
24614;DHT22;12760;46.296;25.290;2023-01-19T06:59:21;9.30;99.90
24614;DHT22;12760;46.296;25.290;2023-01-19T07:01:47;9.30;99.90
24614;DHT22;12760;46.296;25.290;2023-01-19T07:04:12;9.30;99.90
24614;DHT22;12760;46.296;25.290;2023-01-19T07:06:39;9.40;99.90
24614;DHT22;12760;46.296;25.290;2023-01-19T07:09:06;9.40;99.90
24614;DHT22;12760;46.296;25.290;2023-01-19T07:11:34;9.50;99.90
24614;DHT22;12760;46.296;25.290;2023-01-19T07:14:01;9.50;99.90
24614;DHT22;12760;46.296;25.290;2023-01-19T07:16:27;9.60;99.90
24614;DHT22;12760;46.296;25.290;2023-01-19T07:18:53;9.60;99.90
24614;DHT22;12760;46.296;25.290;2023-01-19T07:21:20;9.60;99.90
24614;DHT22;12760;46.296;25.290;2023-01-19T07:23:50;9.70;99.90
24614;DHT22;12760;46.296;25.290;2023-01-19T07:26:16;9.80;99.90
24614;DHT22;12760;46.296;25.290;2023-01-19T07:28:46;9.90;99.90
24614;DHT22;12760;46.296;25.290;2023-01-19T07:31:11;9.90;99.90
24614;DHT22;12760;46.296;25.290;2023-01-19T07:33:37;10.00;99.90
24614;DHT22;12760;46.296;25.290;2023-01-19T07:36:03;10.10;99.90
24614;DHT22;12760;46.296;25.290;2023-01-19T07:38:29;10.20;99.90
24614;DHT22;12760;46.296;25.290;2023-01-19T07:41:02;10.10;99.90
24614;DHT22;12760;46.296;25.290;2023-01-19T07:43:28;10.10;99.90
24614;DHT22;12760;46.296;25.290;2023-01-19T07:45:56;10.10;99.90
24614;DHT22;12760;46.296;25.290;2023-01-19T07:48:21;10.20;99.90
24614;DHT22;12760;46.296;25.290;2023-01-19T07:50:47;10.20;99.90
24614;DHT22;12760;46.296;25.290;2023-01-19T07:53:13;10.20;99.90
24614;DHT22;12760;46.296;25.290;2023-01-19T07:55:38;10.20;99.90
24614;DHT22;12760;46.296;25.290;2023-01-19T07:58:04;10.30;99.90
24614;DHT22;12760;46.296;25.290;2023-01-19T08:00:32;10.30;99.90
24614;DHT22;12760;46.296;25.290;2023-01-19T08:02:59;10.50;99.90
24614;DHT22;12760;46.296;25.290;2023-01-19T08:05:25;10.60;99.90
24614;DHT22;12760;46.296;25.290;2023-01-19T08:07:54;10.70;99.90
24614;DHT22;12760;46.296;25.290;2023-01-19T08:10:22;10.90;99.90
24614;DHT22;12760;46.296;25.290;2023-01-19T08:12:50;11.10;99.90
24614;DHT22;12760;46.296;25.290;2023-01-19T08:15:17;11.30;99.90
24614;DHT22;12760;46.296;25.290;2023-01-19T08:17:43;11.50;99.90
24614;DHT22;12760;46.296;25.290;2023-01-19T08:20:09;11.80;99.90
24614;DHT22;12760;46.296;25.290;2023-01-19T08:22:35;12.00;99.90
24614;DHT22;12760;46.296;25.290;2023-01-19T08:25:01;12.20;99.90
24614;DHT22;12760;46.296;25.290;2023-01-19T08:27:27;12.30;99.90
24614;DHT22;12760;46.296;25.290;2023-01-19T08:29:53;12.40;99.90
24614;DHT22;12760;46.296;25.290;2023-01-19T08:32:19;12.50;99.90
24614;DHT22;12760;46.296;25.290;2023-01-19T08:34:45;12.50;99.90
24614;DHT22;12760;46.296;25.290;2023-01-19T08:37:10;12.50;99.90
24614;DHT22;12760;46.296;25.290;2023-01-19T08:39:36;12.60;99.90
24614;DHT22;12760;46.296;25.290;2023-01-19T08:42:02;12.60;99.90
24614;DHT22;12760;46.296;25.290;2023-01-19T08:44:28;12.70;99.90
24614;DHT22;12760;46.296;25.290;2023-01-19T08:46:54;12.80;99.90
24614;DHT22;12760;46.296;25.290;2023-01-19T08:49:19;12.80;99.90
24614;DHT22;12760;46.296;25.290;2023-01-19T08:51:45;12.90;99.90
24614;DHT22;12760;46.296;25.290;2023-01-19T08:54:12;12.90;99.90
24614;DHT22;12760;46.296;25.290;2023-01-19T08:56:37;12.90;99.90
24614;DHT22;12760;46.296;25.290;2023-01-19T08:59:03;13.00;99.90
24614;DHT22;12760;46.296;25.290;2023-01-19T09:01:29;13.00;99.90
24614;DHT22;12760;46.296;25.290;2023-01-19T09:03:54;13.10;99.90
24614;DHT22;12760;46.296;25.290;2023-01-19T09:06:20;13.20;99.90
24614;DHT22;12760;46.296;25.290;2023-01-19T09:08:46;13.20;99.90
24614;DHT22;12760;46.296;25.290;2023-01-19T09:11:14;13.20;99.90
24614;DHT22;12760;46.296;25.290;2023-01-19T09:13:41;13.30;99.90
24614;DHT22;12760;46.296;25.290;2023-01-19T09:16:08;13.50;99.90
24614;DHT22;12760;46.296;25.290;2023-01-19T09:18:35;13.70;99.90
24614;DHT22;12760;46.296;25.290;2023-01-19T09:21:01;14.00;99.90
24614;DHT22;12760;46.296;25.290;2023-01-19T09:23:28;14.20;99.90
24614;DHT22;12760;46.296;25.290;2023-01-19T09:25:56;14.40;99.90
24614;DHT22;12760;46.296;25.290;2023-01-19T09:28:23;14.50;99.90
24614;DHT22;12760;46.296;25.290;2023-01-19T09:30:48;14.60;99.90
24614;DHT22;12760;46.296;25.290;2023-01-19T09:33:16;14.70;99.90
24614;DHT22;12760;46.296;25.290;2023-01-19T09:35:44;14.80;99.90
24614;DHT22;12760;46.296;25.290;2023-01-19T09:38:10;14.90;99.90
24614;DHT22;12760;46.296;25.290;2023-01-19T09:40:42;14.90;99.90
24614;DHT22;12760;46.296;25.290;2023-01-19T09:48:38;15.00;99.90
24614;DHT22;12760;46.296;25.290;2023-01-19T09:51:09;14.90;99.90
24614;DHT22;12760;46.296;25.290;2023-01-19T09:53:48;15.00;99.90
24614;DHT22;12760;46.296;25.290;2023-01-19T09:56:17;15.00;99.90
24614;DHT22;12760;46.296;25.290;2023-01-19T09:58:44;14.90;99.90
24614;DHT22;12760;46.296;25.290;2023-01-19T10:01:20;14.90;99.90
24614;DHT22;12760;46.296;25.290;2023-01-19T10:03:50;14.90;99.90
24614;DHT22;12760;46.296;25.290;2023-01-19T10:06:17;15.00;99.90
24614;DHT22;12760;46.296;25.290;2023-01-19T10:09:02;15.00;99.90
24614;DHT22;12760;46.296;25.290;2023-01-19T10:12:03;15.10;99.90
24614;DHT22;12760;46.296;25.290;2023-01-19T10:14:41;15.20;99.90
24614;DHT22;12760;46.296;25.290;2023-01-19T10:19:48;15.40;99.90
24614;DHT22;12760;46.296;25.290;2023-01-19T10:22:19;15.50;99.90
24614;DHT22;12760;46.296;25.290;2023-01-19T10:24:49;15.60;99.90
24614;DHT22;12760;46.296;25.290;2023-01-19T10:27:19;15.80;99.90
24614;DHT22;12760;46.296;25.290;2023-01-19T10:29:48;15.90;99.90
24614;DHT22;12760;46.296;25.290;2023-01-19T10:32:24;16.00;99.90
24614;DHT22;12760;46.296;25.290;2023-01-19T10:34:51;16.10;99.90
24614;DHT22;12760;46.296;25.290;2023-01-19T10:39:51;16.30;99.90
24614;DHT22;12760;46.296;25.290;2023-01-19T10:42:18;16.20;99.90
24614;DHT22;12760;46.296;25.290;2023-01-19T10:44:44;16.20;99.90
24614;DHT22;12760;46.296;25.290;2023-01-19T10:47:20;16.20;99.90
24614;DHT22;12760;46.296;25.290;2023-01-19T10:49:51;16.30;99.90
24614;DHT22;12760;46.296;25.290;2023-01-19T10:54:43;16.30;99.90
24614;DHT22;12760;46.296;25.290;2023-01-19T10:57:11;16.30;99.90
24614;DHT22;12760;46.296;25.290;2023-01-19T10:59:47;16.30;99.90
24614;DHT22;12760;46.296;25.290;2023-01-19T11:02:26;16.20;99.90
24614;DHT22;12760;46.296;25.290;2023-01-19T11:04:55;16.20;99.90
24614;DHT22;12760;46.296;25.290;2023-01-19T11:07:28;16.10;99.90
24614;DHT22;12760;46.296;25.290;2023-01-19T11:13:11;16.00;99.90
24614;DHT22;12760;46.296;25.290;2023-01-19T11:15:42;16.00;99.90
24614;DHT22;12760;46.296;25.290;2023-01-19T11:18:29;16.00;99.90
24614;DHT22;12760;46.296;25.290;2023-01-19T11:21:02;15.90;99.90
24614;DHT22;12760;46.296;25.290;2023-01-19T11:25:59;15.80;99.90
24614;DHT22;12760;46.296;25.290;2023-01-19T11:28:41;15.80;99.90
24614;DHT22;12760;46.296;25.290;2023-01-19T11:33:48;15.70;99.90
24614;DHT22;12760;46.296;25.290;2023-01-19T11:36:34;15.70;99.90
24614;DHT22;12760;46.296;25.290;2023-01-19T11:39:20;15.60;99.90
24614;DHT22;12760;46.296;25.290;2023-01-19T11:42:08;15.70;99.90
24614;DHT22;12760;46.296;25.290;2023-01-19T11:44:43;15.70;99.90
24614;DHT22;12760;46.296;25.290;2023-01-19T11:47:29;15.70;99.90
24614;DHT22;12760;46.296;25.290;2023-01-19T11:52:36;15.80;99.90
24614;DHT22;12760;46.296;25.290;2023-01-19T11:55:21;15.90;99.90
24614;DHT22;12760;46.296;25.290;2023-01-19T11:57:50;15.90;99.90
24614;DHT22;12760;46.296;25.290;2023-01-19T12:00:27;15.90;99.90
24614;DHT22;12760;46.296;25.290;2023-01-19T12:03:14;16.00;99.90
24614;DHT22;12760;46.296;25.290;2023-01-19T12:05:47;15.90;99.90
24614;DHT22;12760;46.296;25.290;2023-01-19T12:08:19;15.90;99.90
24614;DHT22;12760;46.296;25.290;2023-01-19T12:10:47;15.90;99.90
24614;DHT22;12760;46.296;25.290;2023-01-19T12:13:25;15.90;99.90
24614;DHT22;12760;46.296;25.290;2023-01-19T12:18:35;15.90;99.90
24614;DHT22;12760;46.296;25.290;2023-01-19T12:21:03;16.00;99.90
24614;DHT22;12760;46.296;25.290;2023-01-19T12:28:50;16.10;99.90
24614;DHT22;12760;46.296;25.290;2023-01-19T12:31:18;16.10;99.90
24614;DHT22;12760;46.296;25.290;2023-01-19T12:33:45;16.10;99.90
24614;DHT22;12760;46.296;25.290;2023-01-19T12:41:36;16.10;99.90
24614;DHT22;12760;46.296;25.290;2023-01-19T12:49:26;16.10;99.90
24614;DHT22;12760;46.296;25.290;2023-01-19T12:52:28;16.10;99.90
24614;DHT22;12760;46.296;25.290;2023-01-19T12:57:59;16.10;99.90
24614;DHT22;12760;46.296;25.290;2023-01-19T13:00:32;16.10;99.90
24614;DHT22;12760;46.296;25.290;2023-01-19T13:03:00;16.00;99.90
24614;DHT22;12760;46.296;25.290;2023-01-19T13:15:53;16.00;99.90
24614;DHT22;12760;46.296;25.290;2023-01-19T13:18:27;16.00;99.90
24614;DHT22;12760;46.296;25.290;2023-01-19T13:21:06;16.00;99.90
24614;DHT22;12760;46.296;25.290;2023-01-19T13:26:19;16.00;99.90
24614;DHT22;12760;46.296;25.290;2023-01-19T13:28:52;16.00;99.90
24614;DHT22;12760;46.296;25.290;2023-01-19T13:31:19;15.90;99.90
24614;DHT22;12760;46.296;25.290;2023-01-19T13:33:48;15.90;99.90
24614;DHT22;12760;46.296;25.290;2023-01-19T13:36:31;15.90;99.90
24614;DHT22;12760;46.296;25.290;2023-01-19T13:39:06;15.90;99.90
24614;DHT22;12760;46.296;25.290;2023-01-19T13:41:36;15.80;99.90
24614;DHT22;12760;46.296;25.290;2023-01-19T13:44:15;15.80;99.90
24614;DHT22;12760;46.296;25.290;2023-01-19T13:46:43;15.80;99.90
24614;DHT22;12760;46.296;25.290;2023-01-19T13:49:29;15.80;99.90
24614;DHT22;12760;46.296;25.290;2023-01-19T13:52:23;15.80;99.90
24614;DHT22;12760;46.296;25.290;2023-01-19T13:57:30;15.80;99.90
24614;DHT22;12760;46.296;25.290;2023-01-19T14:03:00;15.80;99.90
24614;DHT22;12760;46.296;25.290;2023-01-19T14:05:26;15.70;99.90
24614;DHT22;12760;46.296;25.290;2023-01-19T14:08:24;15.80;99.90
24614;DHT22;12760;46.296;25.290;2023-01-19T14:13:24;15.70;99.90
24614;DHT22;12760;46.296;25.290;2023-01-19T14:15:52;15.70;99.90
24614;DHT22;12760;46.296;25.290;2023-01-19T14:23:52;15.50;99.90
24614;DHT22;12760;46.296;25.290;2023-01-19T14:29:33;15.60;99.90
24614;DHT22;12760;46.296;25.290;2023-01-19T14:34:36;15.50;99.90
24614;DHT22;12760;46.296;25.290;2023-01-19T14:37:19;15.40;99.90
24614;DHT22;12760;46.296;25.290;2023-01-19T14:39:48;15.40;99.90
24614;DHT22;12760;46.296;25.290;2023-01-19T14:42:17;15.30;99.90
24614;DHT22;12760;46.296;25.290;2023-01-19T14:44:47;15.30;99.90
24614;DHT22;12760;46.296;25.290;2023-01-19T14:50:03;15.20;99.90
24614;DHT22;12760;46.296;25.290;2023-01-19T14:52:37;15.20;99.90
24614;DHT22;12760;46.296;25.290;2023-01-19T14:55:05;15.20;99.90
24614;DHT22;12760;46.296;25.290;2023-01-19T14:57:35;15.10;99.90
24614;DHT22;12760;46.296;25.290;2023-01-19T15:00:14;15.10;99.90
24614;DHT22;12760;46.296;25.290;2023-01-19T15:02:41;15.10;99.90
24614;DHT22;12760;46.296;25.290;2023-01-19T15:05:07;15.00;99.90
24614;DHT22;12760;46.296;25.290;2023-01-19T15:07:35;15.00;99.90
24614;DHT22;12760;46.296;25.290;2023-01-19T15:10:02;14.90;99.90
24614;DHT22;12760;46.296;25.290;2023-01-19T15:12:28;14.60;99.90
24614;DHT22;12760;46.296;25.290;2023-01-19T15:14:54;14.40;99.90
24614;DHT22;12760;46.296;25.290;2023-01-19T15:17:20;14.20;99.90
24614;DHT22;12760;46.296;25.290;2023-01-19T15:19:53;13.90;99.90
24614;DHT22;12760;46.296;25.290;2023-01-19T15:22:20;13.70;99.90
24614;DHT22;12760;46.296;25.290;2023-01-19T15:24:49;13.60;99.90
24614;DHT22;12760;46.296;25.290;2023-01-19T15:27:15;13.60;99.90
24614;DHT22;12760;46.296;25.290;2023-01-19T15:29:41;13.50;99.90
24614;DHT22;12760;46.296;25.290;2023-01-19T15:32:13;13.40;99.90
24614;DHT22;12760;46.296;25.290;2023-01-19T15:34:40;13.40;99.90
24614;DHT22;12760;46.296;25.290;2023-01-19T15:37:06;13.30;99.90
24614;DHT22;12760;46.296;25.290;2023-01-19T15:39:32;13.10;99.90
24614;DHT22;12760;46.296;25.290;2023-01-19T15:41:59;13.00;99.90
24614;DHT22;12760;46.296;25.290;2023-01-19T15:44:25;12.90;99.90
24614;DHT22;12760;46.296;25.290;2023-01-19T15:46:50;12.80;99.90
24614;DHT22;12760;46.296;25.290;2023-01-19T15:49:16;12.60;99.90
24614;DHT22;12760;46.296;25.290;2023-01-19T15:51:42;12.60;99.90
24614;DHT22;12760;46.296;25.290;2023-01-19T15:54:12;12.60;99.90
24614;DHT22;12760;46.296;25.290;2023-01-19T15:56:39;12.60;99.90
24614;DHT22;12760;46.296;25.290;2023-01-19T15:59:06;12.50;99.90
24614;DHT22;12760;46.296;25.290;2023-01-19T16:01:31;12.20;99.90
24614;DHT22;12760;46.296;25.290;2023-01-19T16:04:00;12.10;99.90
24614;DHT22;12760;46.296;25.290;2023-01-19T16:06:26;12.10;99.90
24614;DHT22;12760;46.296;25.290;2023-01-19T16:08:52;12.20;99.90
24614;DHT22;12760;46.296;25.290;2023-01-19T16:11:23;12.20;99.90
24614;DHT22;12760;46.296;25.290;2023-01-19T16:13:49;11.90;99.90
24614;DHT22;12760;46.296;25.290;2023-01-19T16:16:18;11.80;99.90
24614;DHT22;12760;46.296;25.290;2023-01-19T16:18:44;12.00;99.90
24614;DHT22;12760;46.296;25.290;2023-01-19T16:21:10;12.20;99.90
24614;DHT22;12760;46.296;25.290;2023-01-19T16:23:36;12.30;99.90
24614;DHT22;12760;46.296;25.290;2023-01-19T16:26:07;12.20;99.90
24614;DHT22;12760;46.296;25.290;2023-01-19T16:28:45;12.20;99.90
24614;DHT22;12760;46.296;25.290;2023-01-19T16:31:11;12.20;99.90
24614;DHT22;12760;46.296;25.290;2023-01-19T16:33:38;12.00;99.90
24614;DHT22;12760;46.296;25.290;2023-01-19T16:36:20;12.00;99.90
24614;DHT22;12760;46.296;25.290;2023-01-19T16:38:46;12.10;99.90
24614;DHT22;12760;46.296;25.290;2023-01-19T16:41:12;11.90;99.90
24614;DHT22;12760;46.296;25.290;2023-01-19T16:43:38;11.90;99.90
24614;DHT22;12760;46.296;25.290;2023-01-19T16:46:03;11.70;99.90
24614;DHT22;12760;46.296;25.290;2023-01-19T16:48:29;11.60;99.90
24614;DHT22;12760;46.296;25.290;2023-01-19T16:51:06;11.60;99.90
24614;DHT22;12760;46.296;25.290;2023-01-19T16:53:33;11.60;99.90
24614;DHT22;12760;46.296;25.290;2023-01-19T16:56:04;11.60;99.90
24614;DHT22;12760;46.296;25.290;2023-01-19T16:58:31;11.60;99.90
24614;DHT22;12760;46.296;25.290;2023-01-19T17:00:56;11.70;99.90
24614;DHT22;12760;46.296;25.290;2023-01-19T17:03:22;11.60;99.90
24614;DHT22;12760;46.296;25.290;2023-01-19T17:05:49;11.60;99.90
24614;DHT22;12760;46.296;25.290;2023-01-19T17:08:17;11.60;99.90
24614;DHT22;12760;46.296;25.290;2023-01-19T17:10:44;11.70;99.90
24614;DHT22;12760;46.296;25.290;2023-01-19T17:13:10;11.60;99.90
24614;DHT22;12760;46.296;25.290;2023-01-19T17:15:35;11.30;99.90
24614;DHT22;12760;46.296;25.290;2023-01-19T17:18:01;11.40;99.90
24614;DHT22;12760;46.296;25.290;2023-01-19T17:20:27;11.50;99.90
24614;DHT22;12760;46.296;25.290;2023-01-19T17:22:52;11.50;99.90